No particular awareness of the weather is required.    There are no Weather-warnings
 Banner
iom-flag.gif  iom-flag.gif


Ballaugh webcam more information Ballaugh webcam


Thunder radar more information blitzortung!


Rain radar more information rain snow radar


Visit our other weather sites:

Template documentation
and downloads

And another site



Nearby METAR Reports

   
EGNS - Isle Of Man/Rona, United Kingdom
Distance from station: SSW 16 mi
Updated: 19-04-2019 13:20
Clear  
Clear  
   Wind: ENE 13.8 mph
Wind: ENE 13.8 mph
Temperature: 15°C
Dew Point: 7°C
Humidity: 59%
Barometer: 1030 hPa
Visibility: More than 6 mi
Cloud details: Clear ft
EGNS 191220Z 07012KT CAVOK 15/07 Q1030 NOSIG
EGAC - Belfast Harbour, United Kingdom
Distance from station: WNW 57 mi
Updated: 19-04-2019 13:20
Clear  
Clear  
   Wind: SE 8.1 mph
Wind: SE 8.1 mph
Temperature: 17°C
Dew Point: 9°C
Humidity: 59%
Barometer: 1029 hPa
Clouds: Clear
Visibility: More than 6 mi
Cloud details: Clear ft
EGAC 191220Z AUTO 14007KT 110V180 9999 NCD 17/09 Q1029
EGAA - Belfast/Aldergro, United Kingdom
Distance from station: WNW 71 mi
Updated: 19-04-2019 13:20
Partly Cloudy  
Partly Cloudy  
   Wind: SSE 9.2 mph
Wind: SSE 9.2 mph
Temperature: 18°C
Dew Point: 8°C
Humidity: 52%
Barometer: 1029 hPa
Clouds: Partly Cloudy
Visibility: 6 mi
Cloud details: Partly Cloudy ft
EGAA 191220Z 15008KT 9000 NSC 18/08 Q1029
EGNH - Blackpool Airpor, United Kingdom
Distance from station: ESE 73 mi
Updated: 19-04-2019 13:20
Clear  
Clear  
   Wind: West 6.9 mph
Wind: West 6.9 mph
Temperature: 20°C
Dew Point: 9°C
Humidity: 49%
Barometer: 1030 hPa
Visibility: More than 6 mi
Cloud details: Clear ft
EGNH 191220Z 26006KT CAVOK 20/09 Q1030
EGOV - Valley Raf, United Kingdom
Distance from station: S 73 mi
Updated: 19-04-2019 12:50
Clear  
Clear  
   Wind: SSW 6.9 mph
Wind: SSW 6.9 mph
Temperature: 21°C
Dew Point: 4°C
Humidity: 33%
Barometer: 1029 hPa
Clouds: Clear
Visibility: More than 6 mi
Cloud details: Clear ft
EGOV 191150Z AUTO 21006KT 9999 NCD 21/04 Q1029
EGNC - Carlisle, United Kingdom
Distance from station: ENE 81 mi
Updated: 12-10-2018 14:50
NOT Current
Light Showers, Rain, Overcast  
Light Showers, Rain, Overcast  
   Wind: South 20.7 mph<br />Gust to 20.7 mph
Wind: South 20.7 mph
Gust to 20.7 mph
Temperature: 16°C
Dew Point: 14°C
Humidity: 88%
Barometer: 992 hPa
Clouds: Overcast
Visibility: 3 mi
Cloud details: Partly Cloudy 1000 ft,
Overcast 1600 ft
EGNC 121350Z 18018G33KT 140V220 5000 -SHRA SCT010 OVC016 16/14 Q0992
EGPK - Prestwick(Civ/Na, United Kingdom
Distance from station: N 82 mi
Updated: 19-04-2019 13:20
Clear  
Clear  
   Wind: WSW 5.8 mph
Wind: WSW 5.8 mph
Temperature: 21°C
Dew Point: 8°C
Humidity: 43%
Barometer: 1030 hPa
Visibility: More than 6 mi
Cloud details: Clear ft
EGPK 191220Z 25005KT 210V290 CAVOK 21/08 Q1030
EIDW - Dublin Airport, Ireland
Distance from station: SW 93 mi
Updated: 19-04-2019 13:12
Mostly Cloudy  
Mostly Cloudy  
   Wind: SE 9.2 mph
Wind: SE 9.2 mph
Temperature: 18°C
Dew Point: 6°C
Humidity: 46%
Barometer: 1029 hPa
Clouds: Mostly Cloudy
Visibility: 6 mi
Cloud details: Few Clouds 1600 ft,
Partly Cloudy 12000 ft,
Mostly Cloudy 23000 ft
EIDW 191212Z 13008KT 090V160 9000 FEW016 SCT120 BKN230 18/06 Q1029 NOSIG
EGGP - Liverpool Airpor, United Kingdom
Distance from station: SE 98 mi
Updated: 19-04-2019 13:20
Clear  
Clear  
   Wind: SSE 4.6 mph
Wind: SSE 4.6 mph
Temperature: 20°C
Dew Point: 9°C
Humidity: 49%
Barometer: 1030 hPa
Visibility: More than 6 mi
Cloud details: Clear ft
EGGP 191220Z 15004KT 070V240 CAVOK 20/09 Q1030
EGPF - Glasgow Airport, United Kingdom
Distance from station: N 107 mi
Updated: 19-04-2019 13:20
Clear  
Clear  
   Wind: NNE 5.8 mph
Wind: NNE 5.8 mph
Temperature: 18°C
Dew Point: 9°C
Humidity: 56%
Barometer: 1030 hPa
Clouds: Clear
Visibility: More than 6 mi
Cloud details: Clear ft
EGPF 191220Z AUTO 03005KT 360V060 9999 NCD 18/09 Q1030
EGCC - Manchester Intl, United Kingdom
Distance from station: SE 114 mi
Updated: 19-04-2019 13:20
Clear  
Clear  
   Wind: varies 6.9 mph
Wind: varies 6.9 mph
Temperature: 22°C
Dew Point: 5°C
Humidity: 33%
Barometer: 1030 hPa
Clouds: Clear
Visibility: More than 6 mi
Cloud details: Clear ft
EGCC 191220Z AUTO VRB06KT 9999 NCD 22/05 Q1030 NOSIG
EGNM - Leeds And Bradfo, United Kingdom
Distance from station: ESE 122 mi
Updated: 19-04-2019 13:20
Clear  
Clear  
   Wind: East 6.9 mph
Wind: East 6.9 mph
Temperature: 18°C
Dew Point: 7°C
Humidity: 49%
Barometer: 1031 hPa
Visibility: More than 6 mi
Cloud details: Clear ft
EGNM 191220Z 08006KT 030V160 CAVOK 18/07 Q1031

Script developed by  Saratoga-weather.org Adapted for the template by  Weerstation Leuven

You find our weather info also at:

UK Metoffice

WeatherCloud

WeatherlinkIP

Equipment we use:

Weather-station
Davis VP2

Weather-program
Weather Display

Weather-server
My Computer

Provider
Fasthosts

Davis VP2

Weather Display

My Computer

Fasthosts

 Banner1
iom-flag.gif  iom-flag.gif
Flag Counter 

Hits since site created in 2003